Decoded Metar for PAHP (HOOPER BAY in AK, USA) (IATA:HPB) | Meteo·Mobile Aviation Weather
aviador You're here:

PAHP Decoded Metar

HOOPER BAY in AK, USA
Report Time2019-02-17 15:18:00
UTC Time2019-02-17 15:42:24
Flight Rules ifr IFR
Wind020° at 11 kt
W.Decomp.*RWY 31: 6.0 kt HW 9.2 kt RCW
W.Rank020° ranks 16
Current wind is above 020° avg. (10.4)
Visibility2414 m
Phenomena:Light Snow
Mist
Clouds:Overcast 009 Hf
Ceiling900 ft
Temp-4°C (ISA -19)
Dew Point-4°C (100% RH)
AAT-10.5°C
QNH1002 hPa
Density Alt-1,883 ft
Elevation16 ft
Report Wrong Elevation
Raw Report
PAHP 171518Z AUTO 02011KT 1 1/2SM -SN BR OVC009 M04/M04 A2959 RMK
AO2 CIG 007V011 P0000 FZRANO=

Extra information for PAHP:More info

Metar Taf Metar & Taf Last 4 Metars F.Rules Stats Wind Profile Meteogram Temp Stats Airport Information Weather charts Add Link Nearby VenuesMetar ALERT Operation Metar Decoded Social comments

AIRNAV info for PAHP